createdAt,value
2024-02-04T00:02:27.602Z,101868.56
2024-02-04T00:04:56.543Z,101861.31
2024-02-04T00:07:24.749Z,101859.03
2024-02-04T00:09:52.610Z,101860.56
2024-02-04T00:12:20.357Z,101866.53
2024-02-04T00:14:50.799Z,101862.34
2024-02-04T00:17:18.898Z,101869.22
2024-02-04T00:19:47.056Z,101857.59
2024-02-04T00:22:19.707Z,101852.19
2024-02-04T00:24:47.380Z,101847.84
2024-02-04T00:27:15.674Z,101837.66
2024-02-04T00:29:43.296Z,101839.16
2024-02-04T00:32:10.898Z,101846.97
2024-02-04T00:34:38.728Z,101851.16
2024-02-04T00:37:07.233Z,101848.22
2024-02-04T00:39:35.131Z,101837.78
2024-02-04T00:42:02.753Z,101846.19
2024-02-04T00:44:30.404Z,101851.19
2024-02-04T00:46:58.037Z,101849.63
2024-02-04T00:49:27.723Z,101852.91
2024-02-04T00:51:55.810Z,101835.09
2024-02-04T00:54:23.478Z,101839.28
2024-02-04T00:56:51.284Z,101842.78
2024-02-04T00:59:18.904Z,101827.28
2024-02-04T01:01:47.032Z,101825.75
2024-02-04T01:04:14.789Z,101824.16
2024-02-04T01:06:51.415Z,101836.19
2024-02-04T01:09:29.019Z,101846.16
2024-02-04T01:11:56.745Z,101841.84
2024-02-04T01:14:24.425Z,101845.88
2024-02-04T01:16:52.024Z,101843.28
2024-02-04T01:19:19.819Z,101846.56
2024-02-04T01:21:48.054Z,101858.13
2024-02-04T01:24:15.770Z,101846.34
2024-02-04T01:26:43.976Z,101853.31
2024-02-04T01:29:12.069Z,101860.75
2024-02-04T01:31:39.674Z,101862.75
2024-02-04T01:34:07.397Z,101870.38
2024-02-04T01:36:35.106Z,101873.53
2024-02-04T01:39:03.616Z,101865.34
2024-02-04T01:41:31.883Z,101864.19
2024-02-04T01:43:59.532Z,101864.28
2024-02-04T01:46:27.294Z,101857.91
2024-02-04T01:48:55.548Z,101845.56
2024-02-04T01:51:24.153Z,101838.75
2024-02-04T01:53:54.843Z,101843.09
2024-02-04T01:56:23.047Z,101850.03
2024-02-04T01:58:50.973Z,101851.81
2024-02-04T02:01:18.990Z,101835.28
2024-02-04T02:03:47.440Z,101829.53
2024-02-04T02:06:16.477Z,101836.94
2024-02-04T02:08:44.845Z,101838.69
2024-02-04T02:11:29.007Z,101826.84
2024-02-04T02:14:04.212Z,101826.25
2024-02-04T02:16:34.244Z,101834.94
2024-02-04T02:19:48.800Z,101829.16
2024-02-04T02:22:27.884Z,101833.28
2024-02-04T02:24:58.582Z,101846.50
2024-02-04T02:27:26.650Z,101837.59
2024-02-04T02:29:54.437Z,101842.94
2024-02-04T02:32:22.354Z,101842.03
2024-02-04T02:34:50.647Z,101846.81
2024-02-04T02:37:37.523Z,101843.63
2024-02-04T02:40:08.341Z,101842.69
2024-02-04T02:42:38.653Z,101838.63
2024-02-04T02:45:08.145Z,101837.81
2024-02-04T02:47:37.998Z,101845.50
2024-02-04T02:50:07.438Z,101840.41
2024-02-04T02:52:35.190Z,101833.94
2024-02-04T02:55:02.838Z,101833.38
2024-02-04T02:57:30.529Z,101838.72
2024-02-04T02:59:58.387Z,101845.53
2024-02-04T03:02:26.294Z,101837.00
2024-02-04T03:04:53.996Z,101828.78
2024-02-04T03:07:22.191Z,101820.44
2024-02-04T03:09:50.147Z,101817.63
2024-02-04T03:12:18.263Z,101817.25
2024-02-04T03:14:45.852Z,101815.09
2024-02-04T03:17:14.571Z,101817.91
2024-02-04T03:19:42.193Z,101815.31
2024-02-04T03:22:09.805Z,101807.19
2024-02-04T03:24:38.200Z,101800.53
2024-02-04T03:27:05.956Z,101814.50
2024-02-04T03:29:33.693Z,101805.75
2024-02-04T03:32:01.493Z,101798.09
2024-02-04T03:34:29.313Z,101787.41
2024-02-04T03:36:57.293Z,101794.31
2024-02-04T03:39:25.048Z,101793.81
2024-02-04T03:41:52.673Z,101791.16
2024-02-04T03:44:20.807Z,101784.59
2024-02-04T03:46:50.056Z,101785.56
2024-02-04T03:49:19.527Z,101780.00
2024-02-04T03:51:48.788Z,101780.44
2024-02-04T03:54:16.516Z,101772.69
2024-02-04T03:56:44.167Z,101773.06
2024-02-04T03:59:12.279Z,101770.44
2024-02-04T04:01:40.002Z,101787.00
2024-02-04T04:04:08.310Z,101787.75
2024-02-04T04:06:36.033Z,101775.88
2024-02-04T04:09:03.880Z,101771.16
2024-02-04T04:11:31.470Z,101762.75
2024-02-04T04:13:59.217Z,101781.41
2024-02-04T04:16:26.785Z,101807.50
2024-02-04T04:18:54.530Z,101811.66
2024-02-04T04:21:22.289Z,101811.66
2024-02-04T04:23:49.988Z,101798.38
2024-02-04T04:26:17.644Z,101784.09
2024-02-04T04:28:46.108Z,101784.63
2024-02-04T04:31:13.804Z,101777.94
2024-02-04T04:33:42.145Z,101797.41
2024-02-04T04:36:09.802Z,101801.31
2024-02-04T04:38:37.435Z,101799.53
2024-02-04T04:41:05.705Z,101775.31
2024-02-04T04:43:34.483Z,101777.25
2024-02-04T04:46:02.944Z,101779.50
2024-02-04T04:48:31.339Z,101787.31
2024-02-04T04:51:00.284Z,101782.94
2024-02-04T04:53:27.989Z,101789.34
2024-02-04T04:55:55.598Z,101792.44
2024-02-04T04:58:23.283Z,101802.66
2024-02-04T05:00:51.095Z,101802.63
2024-02-04T05:03:18.883Z,101808.38
2024-02-04T05:05:46.574Z,101808.28
2024-02-04T05:08:16.698Z,101808.78
2024-02-04T05:10:44.464Z,101797.19
2024-02-04T05:13:13.100Z,101807.69
2024-02-04T05:15:40.677Z,101815.13
2024-02-04T05:18:08.349Z,101811.59
2024-02-04T05:20:36.408Z,101813.31
2024-02-04T05:23:04.152Z,101823.31
2024-02-04T05:25:32.556Z,101819.13
2024-02-04T05:28:00.175Z,101827.84
2024-02-04T05:30:27.896Z,101826.44
2024-02-04T05:32:56.665Z,101826.38
2024-02-04T05:35:25.005Z,101819.50
2024-02-04T05:37:52.624Z,101833.38
2024-02-04T05:40:21.835Z,101822.09
2024-02-04T05:42:50.159Z,101823.66
2024-02-04T05:45:17.788Z,101838.41
2024-02-04T05:47:45.956Z,101830.72
2024-02-04T05:50:14.055Z,101833.97
2024-02-04T05:52:41.734Z,101834.66
2024-02-04T05:55:11.831Z,101841.69
2024-02-04T05:57:39.463Z,101843.38
2024-02-04T06:00:09.313Z,101844.19
2024-02-04T06:02:37.917Z,101853.72
2024-02-04T06:05:05.899Z,101851.63
2024-02-04T06:07:33.431Z,101864.63
2024-02-04T06:10:02.478Z,101866.16
2024-02-04T06:12:31.024Z,101876.50
2024-02-04T06:14:58.710Z,101879.13
2024-02-04T06:17:26.371Z,101877.34
2024-02-04T06:19:54.993Z,101871.91
2024-02-04T06:22:22.695Z,101878.97
2024-02-04T06:24:51.412Z,101880.91
2024-02-04T06:27:19.053Z,101870.69
2024-02-04T06:29:46.587Z,101885.88
2024-02-04T06:32:14.594Z,101889.91
2024-02-04T06:34:42.298Z,101897.72
2024-02-04T06:37:09.970Z,101897.47
2024-02-04T06:39:37.614Z,101902.50
2024-02-04T06:42:05.639Z,101904.16
2024-02-04T06:44:34.383Z,101901.63
2024-02-04T06:47:03.373Z,101913.06
2024-02-04T06:49:31.069Z,101911.13
2024-02-04T06:51:59.009Z,101917.50
2024-02-04T06:54:26.828Z,101935.53
2024-02-04T06:56:55.280Z,101928.78
2024-02-04T06:59:23.030Z,101919.75
2024-02-04T07:01:51.350Z,101930.91
2024-02-04T07:04:19.783Z,101930.63
2024-02-04T07:06:47.924Z,101923.16
2024-02-04T07:09:17.519Z,101937.75
2024-02-04T07:11:45.730Z,101932.38
2024-02-04T07:14:13.487Z,101938.44
2024-02-04T07:16:41.246Z,101945.88
2024-02-04T07:19:08.892Z,101949.09
2024-02-04T07:21:37.002Z,101948.38
2024-02-04T07:24:04.932Z,101958.63
2024-02-04T07:26:32.570Z,101957.16
2024-02-04T07:29:00.214Z,101962.75
2024-02-04T07:31:27.826Z,101960.66
2024-02-04T07:33:56.953Z,101962.06
2024-02-04T07:36:24.632Z,101966.63
2024-02-04T07:38:55.369Z,101960.03
2024-02-04T07:41:24.272Z,101959.41
2024-02-04T07:43:51.917Z,101953.75
2024-02-04T07:46:19.656Z,101961.97
2024-02-04T07:48:47.557Z,101966.28
2024-02-04T07:51:15.341Z,101975.00
2024-02-04T07:53:42.930Z,101976.59
2024-02-04T07:56:12.066Z,101971.41
2024-02-04T07:58:40.202Z,101973.06
2024-02-04T08:01:08.376Z,101956.03
2024-02-04T08:03:36.120Z,101968.56
2024-02-04T08:06:03.938Z,101977.84
2024-02-04T08:08:31.544Z,101972.53
2024-02-04T08:11:01.454Z,101970.22
2024-02-04T08:13:29.922Z,101978.16
2024-02-04T08:15:57.939Z,101979.59
2024-02-04T08:18:25.634Z,101976.81
2024-02-04T08:20:54.251Z,101981.41
2024-02-04T08:23:22.339Z,101981.28
2024-02-04T08:25:51.249Z,101976.25
2024-02-04T08:28:18.966Z,101970.38
2024-02-04T08:30:46.650Z,101969.75
2024-02-04T08:33:14.963Z,101970.66
2024-02-04T08:35:42.871Z,101970.22
2024-02-04T08:38:11.434Z,101982.22
2024-02-04T08:40:39.089Z,101998.28
2024-02-04T08:43:06.883Z,102003.72
2024-02-04T08:45:34.662Z,102000.72
2024-02-04T08:48:02.359Z,102001.34
2024-02-04T08:50:30.748Z,101990.09
2024-02-04T08:52:58.813Z,101989.50
2024-02-04T08:55:26.887Z,101992.97
2024-02-04T08:57:54.679Z,101986.88
2024-02-04T09:00:22.893Z,101979.81
2024-02-04T09:02:50.696Z,101992.84
2024-02-04T09:05:19.396Z,101982.75
2024-02-04T09:07:47.430Z,101974.78
2024-02-04T09:10:15.384Z,101972.63
2024-02-04T09:12:43.450Z,101966.53
2024-02-04T09:15:11.388Z,101961.00
2024-02-04T09:17:39.151Z,101968.28
2024-02-04T09:20:09.201Z,101972.59
2024-02-04T09:22:37.817Z,101962.66
2024-02-04T09:25:06.506Z,101966.19
2024-02-04T09:27:34.726Z,101956.25
2024-02-04T09:30:02.605Z,101958.22
2024-02-04T09:32:30.640Z,101952.63
2024-02-04T09:34:58.608Z,101955.53
2024-02-04T09:37:26.813Z,101958.06
2024-02-04T09:39:55.446Z,101959.06
2024-02-04T09:42:24.451Z,101966.97
2024-02-04T09:44:52.866Z,101954.34
2024-02-04T09:47:22.031Z,101954.91
2024-02-04T09:49:50.377Z,101951.28
2024-02-04T09:52:23.518Z,101948.97
2024-02-04T09:55:02.099Z,101951.72
2024-02-04T09:57:35.384Z,101950.53
2024-02-04T10:00:06.836Z,101956.69
2024-02-04T10:02:40.738Z,101955.59
2024-02-04T10:05:10.558Z,101951.19
2024-02-04T10:07:38.993Z,101948.09
2024-02-04T10:10:08.281Z,101947.06
2024-02-04T10:12:39.173Z,101947.75
2024-02-04T10:15:08.938Z,101936.47
2024-02-04T10:17:36.603Z,101944.00
2024-02-04T10:20:04.743Z,101923.78
2024-02-04T10:22:32.729Z,101924.66
2024-02-04T10:25:08.541Z,101917.19
2024-02-04T10:27:37.942Z,101934.81
2024-02-04T10:30:07.889Z,101923.34
2024-02-04T10:32:36.086Z,101930.44
2024-02-04T10:35:04.309Z,101917.47
2024-02-04T10:37:32.150Z,101914.88
2024-02-04T10:40:00.107Z,101904.72
2024-02-04T10:42:30.217Z,101925.28
2024-02-04T10:45:00.220Z,101925.91
2024-02-04T10:47:34.672Z,101922.72
2024-02-04T10:50:05.239Z,101917.75
2024-02-04T10:52:38.973Z,101906.44
2024-02-04T10:55:09.950Z,101891.00
2024-02-04T10:57:39.775Z,101894.13
2024-02-04T11:00:13.022Z,101882.69
2024-02-04T11:02:44.248Z,101871.22
2024-02-04T11:05:12.350Z,101870.06
2024-02-04T11:07:40.435Z,101873.22
2024-02-04T11:10:09.031Z,101870.25
2024-02-04T11:12:39.422Z,101880.78
2024-02-04T11:15:10.259Z,101878.59
2024-02-04T11:17:59.308Z,101879.88
2024-02-04T11:20:30.976Z,101883.09
2024-02-04T11:22:59.777Z,101874.72
2024-02-04T11:25:44.555Z,101878.88
2024-02-04T11:28:13.935Z,101881.38
2024-02-04T11:30:45.057Z,101876.84
2024-02-04T11:33:15.407Z,101856.44
2024-02-04T11:35:43.721Z,101859.91
2024-02-04T11:38:12.458Z,101858.75
2024-02-04T11:40:41.126Z,101854.41
2024-02-04T11:43:12.702Z,101846.19
2024-02-04T11:45:44.076Z,101850.94
2024-02-04T11:48:12.831Z,101850.59
2024-02-04T11:50:43.931Z,101840.97
2024-02-04T11:53:13.732Z,101843.59
2024-02-04T11:55:45.377Z,101841.59
2024-02-04T11:58:14.680Z,101827.22
2024-02-04T12:00:47.131Z,101834.94
2024-02-04T12:03:14.966Z,101825.66
2024-02-04T12:05:44.183Z,101818.97
2024-02-04T12:08:13.336Z,101809.69
2024-02-04T12:10:44.884Z,101799.81
2024-02-04T12:13:14.014Z,101807.25
2024-02-04T12:15:42.718Z,101800.94
2024-02-04T12:18:11.953Z,101799.94
2024-02-04T12:20:40.741Z,101799.28
2024-02-04T12:23:09.195Z,101808.25
2024-02-04T12:25:42.422Z,101792.69
2024-02-04T12:28:12.805Z,101805.44
2024-02-04T12:30:40.591Z,101798.75
2024-02-04T12:33:08.531Z,101791.81
2024-02-04T12:35:36.838Z,101787.97
2024-02-04T12:38:11.922Z,101781.31
2024-02-04T12:40:39.513Z,101776.53
2024-02-04T12:43:08.061Z,101762.78
2024-02-04T12:45:35.872Z,101763.09
2024-02-04T12:48:04.237Z,101763.41
2024-02-04T12:50:34.628Z,101769.41
2024-02-04T12:53:14.226Z,101764.50
2024-02-04T12:55:44.148Z,101763.69
2024-02-04T12:58:15.809Z,101759.94
2024-02-04T13:00:44.071Z,101760.59
2024-02-04T13:03:12.442Z,101759.88
2024-02-04T13:05:40.380Z,101757.31
2024-02-04T13:08:09.201Z,101747.34
2024-02-04T13:10:38.015Z,101751.28
2024-02-04T13:13:09.728Z,101739.34
2024-02-04T13:15:42.636Z,101739.66
2024-02-04T13:18:12.676Z,101740.22
2024-02-04T13:20:41.889Z,101735.63
2024-02-04T13:23:11.311Z,101732.56
2024-02-04T13:25:39.797Z,101723.81
2024-02-04T13:28:08.659Z,101724.75
2024-02-04T13:30:37.078Z,101727.03
2024-02-04T13:33:06.981Z,101724.81
2024-02-04T13:35:37.588Z,101729.53
2024-02-04T13:38:06.651Z,101732.19
2024-02-04T13:40:34.705Z,101720.41
2024-02-04T13:43:02.827Z,101727.84
2024-02-04T13:45:30.498Z,101725.41
2024-02-04T13:47:58.227Z,101719.41
2024-02-04T13:50:26.030Z,101724.59
2024-02-04T13:52:53.628Z,101729.38
2024-02-04T13:55:22.285Z,101734.09
2024-02-04T13:57:50.902Z,101734.81
2024-02-04T14:00:18.990Z,101723.75
2024-02-04T14:02:47.009Z,101732.06
2024-02-04T14:05:14.757Z,101726.28
2024-02-04T14:07:42.916Z,101713.75
2024-02-04T14:10:13.014Z,101725.56
2024-02-04T14:12:46.735Z,101718.56
2024-02-04T14:15:15.095Z,101717.28
2024-02-04T14:17:43.364Z,101717.66
2024-02-04T14:20:11.411Z,101721.09
2024-02-04T14:22:39.019Z,101719.78
2024-02-04T14:25:07.488Z,101716.66
2024-02-04T14:27:35.082Z,101715.09
2024-02-04T14:30:02.909Z,101717.13
2024-02-04T14:32:32.468Z,101725.22
2024-02-04T14:35:00.979Z,101708.34
2024-02-04T14:37:29.303Z,101707.16
2024-02-04T14:39:57.143Z,101704.00
2024-02-04T14:42:25.214Z,101710.19
2024-02-04T14:44:52.873Z,101704.09
2024-02-04T14:47:20.940Z,101710.19
2024-02-04T14:49:50.150Z,101717.59
2024-02-04T14:52:19.158Z,101706.91
2024-02-04T14:54:46.993Z,101708.03
2024-02-04T14:57:15.174Z,101707.28
2024-02-04T14:59:44.304Z,101708.53
2024-02-04T15:02:12.112Z,101708.63
2024-02-04T15:04:41.090Z,101715.31
2024-02-04T15:07:09.569Z,101713.63
2024-02-04T15:09:37.796Z,101709.03
2024-02-04T15:12:06.247Z,101716.56
2024-02-04T15:14:34.165Z,101708.34
2024-02-04T15:17:03.293Z,101702.06
2024-02-04T15:19:37.347Z,101710.81
2024-02-04T15:22:06.152Z,101708.25
2024-02-04T15:24:34.927Z,101714.56
2024-02-04T15:27:06.301Z,101714.19
2024-02-04T15:29:36.973Z,101721.59
2024-02-04T15:32:08.043Z,101714.31
2024-02-04T15:34:37.246Z,101712.41
2024-02-04T15:37:05.377Z,101713.16
2024-02-04T15:39:34.895Z,101716.22
2024-02-04T15:42:02.545Z,101720.84
2024-02-04T15:44:30.113Z,101709.09
2024-02-04T15:47:00.152Z,101706.13
2024-02-04T15:49:29.468Z,101707.59
2024-02-04T15:51:57.779Z,101708.44
2024-02-04T15:54:25.806Z,101714.13
2024-02-04T15:57:04.023Z,101714.41
2024-02-04T15:59:51.554Z,101720.38
2024-02-04T16:02:19.532Z,101721.91
2024-02-04T16:04:47.241Z,101718.66
2024-02-04T16:07:16.399Z,101719.72
2024-02-04T16:09:49.231Z,101713.53
2024-02-04T16:12:22.006Z,101716.25
2024-02-04T16:14:51.760Z,101713.13
2024-02-04T16:17:21.475Z,101722.00
2024-02-04T16:19:51.090Z,101706.09
2024-02-04T16:22:20.651Z,101721.63
2024-02-04T16:24:48.492Z,101715.81
2024-02-04T16:27:16.281Z,101734.88
2024-02-04T16:29:43.896Z,101740.38
2024-02-04T16:32:15.530Z,101741.00
2024-02-04T16:34:43.540Z,101746.91
2024-02-04T16:37:11.819Z,101738.66
2024-02-04T16:39:40.181Z,101743.47
2024-02-04T16:42:10.033Z,101750.44
2024-02-04T16:44:37.866Z,101760.28
2024-02-04T16:47:06.149Z,101763.31
2024-02-04T16:49:34.313Z,101752.38
2024-02-04T16:52:02.880Z,101747.56
2024-02-04T16:54:30.757Z,101754.59
2024-02-04T16:56:59.354Z,101757.97
2024-02-04T16:59:27.401Z,101751.97
2024-02-04T17:01:55.699Z,101758.34
2024-02-04T17:04:24.138Z,101761.19
2024-02-04T17:06:52.265Z,101759.72
2024-02-04T17:09:20.729Z,101758.97
2024-02-04T17:11:48.820Z,101761.97
2024-02-04T17:14:18.529Z,101763.47
2024-02-04T17:17:12.604Z,101768.16
2024-02-04T17:19:45.268Z,101764.31
2024-02-04T17:22:19.357Z,101767.88
2024-02-04T17:24:51.661Z,101768.41
2024-02-04T17:27:20.166Z,101754.84
2024-02-04T17:29:53.752Z,101763.72
2024-02-04T17:32:26.796Z,101754.25
2024-02-04T17:34:55.537Z,101766.88
2024-02-04T17:37:23.415Z,101763.66
2024-02-04T17:39:51.282Z,101765.75
2024-02-04T17:42:19.200Z,101768.91
2024-02-04T17:44:47.921Z,101768.59
2024-02-04T17:47:16.360Z,101765.44
2024-02-04T17:49:44.359Z,101772.78
2024-02-04T17:52:12.050Z,101768.50
2024-02-04T17:54:40.635Z,101776.50
2024-02-04T17:57:10.339Z,101762.66
2024-02-04T17:59:38.021Z,101760.94
2024-02-04T18:02:06.434Z,101749.75
2024-02-04T18:04:35.547Z,101745.75
2024-02-04T18:07:04.455Z,101751.50
2024-02-04T18:09:34.809Z,101760.63
2024-02-04T18:12:02.460Z,101760.78
2024-02-04T18:14:30.457Z,101774.41
2024-02-04T18:16:58.162Z,101766.94
2024-02-04T18:19:25.966Z,101763.88
2024-02-04T18:21:53.752Z,101763.31
2024-02-04T18:24:21.814Z,101765.53
2024-02-04T18:26:49.890Z,101756.22
2024-02-04T18:29:18.033Z,101764.94
2024-02-04T18:31:49.660Z,101760.09
2024-02-04T18:34:17.342Z,101764.50
2024-02-04T18:36:45.180Z,101766.81
2024-02-04T18:39:14.779Z,101775.19
2024-02-04T18:41:46.645Z,101771.88
2024-02-04T18:44:16.468Z,101774.34
2024-02-04T18:46:44.670Z,101776.03
2024-02-04T18:49:12.740Z,101775.00
2024-02-04T18:51:47.471Z,101779.56
2024-02-04T18:54:15.387Z,101779.31
2024-02-04T18:56:48.204Z,101776.22
2024-02-04T18:59:15.831Z,101770.00
2024-02-04T19:01:45.377Z,101777.94
2024-02-04T19:04:13.200Z,101772.69
2024-02-04T19:06:49.219Z,101771.22
2024-02-04T19:09:17.307Z,101776.16
2024-02-04T19:11:45.596Z,101777.88
2024-02-04T19:14:13.962Z,101775.16
2024-02-04T19:16:42.184Z,101773.94
2024-02-04T19:19:11.799Z,101770.06
2024-02-04T19:21:47.204Z,101785.66
2024-02-04T19:24:19.612Z,101773.59
2024-02-04T19:26:49.210Z,101788.09
2024-02-04T19:29:18.025Z,101791.25
2024-02-04T19:31:46.676Z,101788.16
2024-02-04T19:34:14.516Z,101795.47
2024-02-04T19:36:44.661Z,101795.41
2024-02-04T19:39:14.529Z,101795.06
2024-02-04T19:41:44.682Z,101797.41
2024-02-04T19:44:13.265Z,101794.63
2024-02-04T19:46:40.909Z,101801.19
2024-02-04T19:49:08.678Z,101798.97
2024-02-04T19:51:36.889Z,101811.34
2024-02-04T19:54:04.661Z,101809.28
2024-02-04T19:56:32.923Z,101809.84
2024-02-04T19:59:04.894Z,101815.44
2024-02-04T20:01:36.131Z,101830.06
2024-02-04T20:04:05.180Z,101823.97
2024-02-04T20:06:33.446Z,101825.53
2024-02-04T20:09:01.101Z,101829.22
2024-02-04T20:11:33.396Z,101825.28
2024-02-04T20:14:05.069Z,101822.91
2024-02-04T20:16:32.977Z,101819.94
2024-02-04T20:19:03.893Z,101814.66
2024-02-04T20:21:33.921Z,101816.53
2024-02-04T20:24:02.344Z,101816.94
2024-02-04T20:26:30.670Z,101819.03
2024-02-04T20:28:58.330Z,101811.19
2024-02-04T20:31:26.146Z,101814.31
2024-02-04T20:33:54.707Z,101814.66
2024-02-04T20:36:23.333Z,101817.88
2024-02-04T20:38:51.900Z,101818.91
2024-02-04T20:41:19.729Z,101814.66
2024-02-04T20:43:49.214Z,101821.19
2024-02-04T20:46:16.868Z,101815.59
2024-02-04T20:48:46.285Z,101819.97
2024-02-04T20:51:14.182Z,101818.16
2024-02-04T20:53:42.855Z,101821.78
2024-02-04T20:56:10.785Z,101828.19
2024-02-04T20:58:39.708Z,101818.75
2024-02-04T21:01:08.135Z,101831.06
2024-02-04T21:03:36.959Z,101836.75
2024-02-04T21:06:05.476Z,101837.00
2024-02-04T21:08:33.119Z,101831.19
2024-02-04T21:11:01.988Z,101832.34
2024-02-04T21:13:29.945Z,101843.06
2024-02-04T21:15:57.583Z,101842.41
2024-02-04T21:18:25.522Z,101844.69
2024-02-04T21:20:53.258Z,101832.59
2024-02-04T21:23:21.414Z,101840.00
2024-02-04T21:25:50.890Z,101840.28
2024-02-04T21:28:19.016Z,101846.84
2024-02-04T21:30:46.677Z,101845.03
2024-02-04T21:33:14.401Z,101844.50
2024-02-04T21:35:42.565Z,101838.94
2024-02-04T21:38:11.159Z,101846.50
2024-02-04T21:40:46.692Z,101855.34
2024-02-04T21:43:14.547Z,101851.09
2024-02-04T21:45:42.273Z,101850.97
2024-02-04T21:48:10.527Z,101844.44
2024-02-04T21:50:41.650Z,101842.47
2024-02-04T21:53:11.216Z,101847.31
2024-02-04T21:55:38.899Z,101849.38
2024-02-04T21:58:06.555Z,101848.72
2024-02-04T22:00:35.954Z,101844.34
2024-02-04T22:03:05.639Z,101848.69
2024-02-04T22:05:35.649Z,101852.50
2024-02-04T22:08:05.262Z,101838.81
2024-02-04T22:10:32.893Z,101835.16
2024-02-04T22:13:00.718Z,101841.09
2024-02-04T22:15:28.389Z,101843.53
2024-02-04T22:17:58.179Z,101850.06
2024-02-04T22:20:28.230Z,101850.34
2024-02-04T22:22:55.917Z,101850.59
2024-02-04T22:25:30.595Z,101856.97
2024-02-04T22:28:00.014Z,101846.50
2024-02-04T22:30:28.390Z,101847.38
2024-02-04T22:32:56.189Z,101851.91
2024-02-04T22:35:26.105Z,101851.06
2024-02-04T22:37:55.111Z,101840.44
2024-02-04T22:40:25.347Z,101838.47
2024-02-04T22:42:53.288Z,101845.66
2024-02-04T22:45:21.219Z,101839.13
2024-02-04T22:47:49.299Z,101831.34
2024-02-04T22:50:18.853Z,101838.81
2024-02-04T22:52:46.585Z,101833.25
2024-02-04T22:55:14.300Z,101835.69
2024-02-04T22:57:42.148Z,101835.03
2024-02-04T23:00:14.462Z,101842.06
2024-02-04T23:02:42.641Z,101835.31
2024-02-04T23:05:11.060Z,101838.03
2024-02-04T23:07:47.549Z,101839.97
2024-02-04T23:10:19.984Z,101853.53
2024-02-04T23:12:48.938Z,101834.09
2024-02-04T23:15:17.836Z,101835.47
2024-02-04T23:17:46.226Z,101840.38
2024-02-04T23:20:14.022Z,101834.25
2024-02-04T23:22:41.657Z,101836.63
2024-02-04T23:25:09.885Z,101842.06
2024-02-04T23:27:37.642Z,101843.94
2024-02-04T23:30:07.103Z,101835.16
2024-02-04T23:32:34.847Z,101836.00
2024-02-04T23:35:02.655Z,101834.44
2024-02-04T23:37:30.459Z,101828.22
2024-02-04T23:39:58.199Z,101830.63
2024-02-04T23:42:25.857Z,101833.44
2024-02-04T23:44:53.556Z,101828.28
2024-02-04T23:47:22.275Z,101828.16
2024-02-04T23:49:49.995Z,101819.84
2024-02-04T23:52:18.359Z,101822.25
2024-02-04T23:54:46.535Z,101815.34
2024-02-04T23:57:14.282Z,101822.94
2024-02-04T23:59:41.850Z,101813.16
